Details for Virgin Australia at NZAA




Go Back


Latest METAR
Local Time

NZAA 232330Z AUTO 21006KT 150V260 9999 NCD 23/15 Q1017 NOSIG

24/02/2018, 12:50:23

Description
Results
Virgin Australia Logo
Number of Pilots based at NZAA
0 Pilots Based here
Number of Virgin Australia Flights Departed from NZAA
0 Flights Departed
Number of Virgin Australia Flights Arrived at NZAA
0 Flights Arrived
Number of Virgin Australia Schedules Departing from NZAA
14 Schedules
Number of Virgin Australia Schedules Arriving at NZAA
14 Schedules
Number of Virgin Australia Schedules Departing from NZAA availible today
8 Schedules Today
Number of Virgin Australia Schedules Arriving at NZAA availible today
9 Schedules Today
Average Landing Rate at NZAA
-125 fpm
Virgin Australia Average Landing Rate at NZAA
0 fpm
Total Fuel Purchased at NZAA by Virgin Australia
0.00 kgs / 0.00 lbs

Pilots Based at NZAA


Pilot ID
Pilot Name
Pilot Rank
No. of Flights
No. of Flying Hours
There are no pilots assigned to this hub!   Will you be the first?
Content